Time;durP1;ratioP1;P1;durP2;ratioP2;P2;SDS_P1;SDS_P2;PMS_P1;PMS_P2;Temp;Humidity;BMP_temperature;BMP_pressure;BME280_temperature;BME280_humidity;BME280_pressure;Samples;Min_cycle;Max_cycle;Signal;HPM_P1;HPM_P2
2021/12/25 00:00:21;;;;;;;15.30;12.93;;;2.60;1.00;;;;;;5083823;28;20210;-61
2021/12/25 00:02:48;;;;;;;16.90;13.90;;;2.60;99.90;;;;;;5085473;28;20202;-60
2021/12/25 00:05:20;;;;;;;17.53;14.87;;;2.40;1.00;;;;;;5083289;28;20281;-60
2021/12/25 00:07:47;;;;;;;18.40;15.50;;;2.40;99.90;;;;;;5086150;28;21106;-60
2021/12/25 00:10:14;;;;;;;18.10;15.30;;;2.50;99.90;;;;;;5086046;28;20705;-59
2021/12/25 00:12:41;;;;;;;18.37;15.57;;;2.50;99.90;;;;;;5083506;28;20635;-59
2021/12/25 00:15:13;;;;;;;16.90;14.80;;;2.50;99.90;;;;;;5085450;28;20218;-59
2021/12/25 00:17:40;;;;;;;16.80;13.90;;;2.50;1.00;;;;;;5086020;28;20224;-60
2021/12/25 00:20:08;;;;;;;18.63;15.90;;;2.40;99.90;;;;;;5084776;28;20239;-60
2021/12/25 00:22:37;;;;;;;17.90;15.17;;;2.40;99.90;;;;;;5101984;28;20224;-60
2021/12/25 00:25:06;;;;;;;18.77;15.53;;;2.30;96.30;;;;;;5086121;28;20372;-61
2021/12/25 00:32:51;;;;;;;20.40;16.67;;;2.30;1.00;;;;;;5078879;28;20218;-60
2021/12/25 00:35:18;;;;;;;18.57;15.93;;;2.30;1.00;;;;;;5084334;28;20710;-59
2021/12/25 00:37:45;;;;;;;20.50;16.30;;;2.30;1.00;;;;;;5101782;28;20787;-60
2021/12/25 00:40:13;;;;;;;19.33;16.20;;;2.40;44.70;;;;;;5086617;28;20186;-60
2021/12/25 00:42:40;;;;;;;18.83;15.47;;;2.30;92.20;;;;;;5084548;28;21417;-60
2021/12/25 00:45:10;;;;;;;20.67;17.00;;;2.40;59.10;;;;;;5084381;28;23098;-60
2021/12/25 00:47:37;;;;;;;22.83;17.03;;;2.30;99.90;;;;;;5080041;28;20236;-60
2021/12/25 00:50:06;;;;;;;20.73;16.43;;;2.40;99.90;;;;;;5084053;28;20252;-60
2021/12/25 00:52:33;;;;;;;21.80;16.57;;;2.40;99.90;;;;;;5078038;28;20210;-60
2021/12/25 00:55:01;;;;;;;22.70;17.60;;;2.30;99.90;;;;;;5083222;28;20267;-59
2021/12/25 00:57:28;;;;;;;20.80;17.03;;;2.30;94.40;;;;;;5084299;28;20190;-60
2021/12/25 00:59:55;;;;;;;21.03;17.37;;;2.30;1.00;;;;;;5074796;28;20298;-59
2021/12/25 01:02:22;;;;;;;20.17;16.37;;;2.30;1.00;;;;;;5084592;28;20202;-60
2021/12/25 01:04:49;;;;;;;19.90;16.43;;;2.30;1.00;;;;;;5099904;28;20205;-60
2021/12/25 01:07:17;;;;;;;18.87;15.53;;;2.30;1.00;;;;;;5077068;28;20202;-59
2021/12/25 01:09:48;;;;;;;21.17;17.30;;;2.20;1.00;;;;;;5075441;28;20194;-60
2021/12/25 01:12:19;;;;;;;21.50;17.30;;;2.20;1.00;;;;;;5081380;28;20309;-60
2021/12/25 01:14:52;;;;;;;21.53;16.43;;;2.20;1.00;;;;;;5078344;28;20247;-60
2021/12/25 01:31:19;;;;;;;20.93;16.07;;;2.00;99.90;;;;;;5081193;28;20249;-60
2021/12/25 01:39:44;;;;;;;16.57;13.97;;;2.10;99.90;;;;;;5074999;28;20363;-60
2021/12/25 01:49:02;;;;;;;19.17;14.63;;;2.00;79.10;;;;;;5079663;28;20317;-59
2021/12/25 01:51:30;;;;;;;19.70;14.87;;;2.00;99.90;;;;;;5084740;28;20214;-59
2021/12/25 01:53:57;;;;;;;17.17;14.27;;;2.10;99.90;;;;;;5100512;28;20202;-59
2021/12/25 01:56:24;;;;;;;18.27;14.60;;;2.10;1.00;;;;;;5100142;28;20688;-60
2021/12/25 01:58:52;;;;;;;18.70;14.57;;;2.00;1.00;;;;;;5080627;28;20656;-58
2021/12/25 02:01:19;;;;;;;20.07;15.23;;;2.10;25.10;;;;;;5079788;28;20202;-60
2021/12/25 02:03:49;;;;;;;19.07;14.47;;;2.00;1.00;;;;;;5085227;28;20209;-60
2021/12/25 02:06:16;;;;;;;19.43;15.00;;;2.10;30.20;;;;;;5086606;28;20195;-60
2021/12/25 02:08:44;;;;;;;18.70;13.10;;;2.00;1.00;;;;;;5080034;28;20202;-60
2021/12/25 02:11:13;;;;;;;16.37;12.57;;;1.90;1.00;;;;;;5102970;28;20252;-60
2021/12/25 02:13:42;;;;;;;16.93;13.60;;;1.90;1.00;;;;;;5064758;28;20218;-60
2021/12/25 02:16:17;;;;;;;17.03;13.07;;;1.90;1.00;;;;;;5101020;28;20714;-60
2021/12/25 02:19:08;;;;;;;18.70;13.63;;;1.90;1.00;;;;;;5084479;28;20193;-60
2021/12/25 02:21:41;;;;;;;17.10;12.23;;;1.80;1.00;;;;;;5100778;28;20210;-59
2021/12/25 02:24:11;;;;;;;19.27;14.40;;;1.80;1.00;;;;;;5080999;28;20194;-59
2021/12/25 02:26:43;;;;;;;14.83;11.30;;;1.90;1.00;;;;;;5085129;28;20920;-59
2021/12/25 02:29:13;;;;;;;16.07;12.63;;;1.80;1.00;;;;;;5100696;28;20239;-60
2021/12/25 02:31:41;;;;;;;15.07;11.57;;;1.80;1.00;;;;;;5101907;28;20316;-59
2021/12/25 02:34:08;;;;;;;16.40;11.47;;;1.70;1.00;;;;;;5101766;28;20198;-59
2021/12/25 02:36:36;;;;;;;15.03;11.93;;;1.70;1.00;;;;;;5083918;28;20236;-59
2021/12/25 02:39:03;;;;;;;13.47;11.63;;;1.70;1.00;;;;;;5083651;28;20194;-59
2021/12/25 02:41:31;;;;;;;11.90;10.43;;;1.70;1.00;;;;;;5079125;28;20257;-59
2021/12/25 02:43:58;;;;;;;13.37;10.17;;;1.70;1.00;;;;;;5088062;28;20198;-59
2021/12/25 02:46:40;;;;;;;12.73;10.27;;;1.60;1.00;;;;;;5086248;28;20206;-59
2021/12/25 02:49:09;;;;;;;10.97;9.40;;;1.70;1.00;;;;;;5085354;28;20637;-59
2021/12/25 02:51:43;;;;;;;11.33;9.53;;;1.50;1.00;;;;;;5100834;28;20190;-60
2021/12/25 02:54:10;;;;;;;12.43;9.17;;;1.60;1.00;;;;;;5101806;28;20203;-59
2021/12/25 02:56:39;;;;;;;11.97;9.03;;;1.60;1.00;;;;;;5078922;28;20198;-61
2021/12/25 02:59:09;;;;;;;11.67;8.33;;;1.50;1.00;;;;;;5078266;28;20195;-60
2021/12/25 03:02:10;;;;;;;9.13;7.83;;;1.50;1.00;;;;;;5072435;28;20273;-60
2021/12/25 03:04:39;;;;;;;11.37;8.43;;;1.40;1.00;;;;;;5088287;28;20190;-59
2021/12/25 03:07:07;;;;;;;9.17;8.13;;;1.40;1.00;;;;;;5069725;28;20747;-59
2021/12/25 03:09:35;;;;;;;9.53;7.97;;;1.40;1.00;;;;;;5070055;28;20198;-60
2021/12/25 03:12:05;;;;;;;10.23;8.23;;;1.40;1.00;;;;;;5088240;28;20206;-60
2021/12/25 03:15:04;;;;;;;11.07;8.63;;;1.40;1.00;;;;;;5085416;28;20198;-59
2021/12/25 03:17:34;;;;;;;9.50;8.27;;;1.40;1.00;;;;;;5084501;28;20210;-59
2021/12/25 03:20:02;;;;;;;7.83;7.03;;;1.40;1.00;;;;;;5069827;28;20198;-59
2021/12/25 03:22:29;;;;;;;9.13;8.13;;;1.30;99.90;;;;;;5086070;28;20583;-59
2021/12/25 03:24:56;;;;;;;9.50;7.77;;;1.20;99.90;;;;;;5081162;28;20198;-59
2021/12/25 03:27:24;;;;;;;7.83;7.03;;;1.30;99.90;;;;;;5080193;28;20195;-59
2021/12/25 03:29:51;;;;;;;9.43;7.47;;;1.20;1.00;;;;;;5081815;28;20230;-60
2021/12/25 03:32:21;;;;;;;9.90;7.20;;;1.20;1.00;;;;;;5079135;28;20626;-59
2021/12/25 03:34:50;;;;;;;7.83;6.67;;;1.30;1.00;;;;;;5085227;28;20247;-60
2021/12/25 03:37:18;;;;;;;7.57;6.23;;;1.20;99.90;;;;;;5085584;28;20194;-59
2021/12/25 03:39:45;;;;;;;8.83;6.83;;;1.10;99.90;;;;;;5067102;28;20216;-60
2021/12/25 03:42:12;;;;;;;8.07;7.27;;;1.10;99.90;;;;;;5084967;28;20818;-59
2021/12/25 03:44:39;;;;;;;8.50;7.20;;;1.20;99.90;;;;;;5083587;28;20289;-59
2021/12/25 03:47:14;;;;;;;8.33;6.20;;;1.10;99.90;;;;;;5082767;28;20583;-59
2021/12/25 03:58:11;;;;;;;9.80;8.20;;;1.00;99.90;;;;;;5081053;28;20286;-59
2021/12/25 04:00:40;;;;;;;9.13;6.47;;;1.00;99.90;;;;;;5083633;28;20829;-59
2021/12/25 04:03:14;;;;;;;7.13;6.10;;;0.90;99.90;;;;;;5065939;28;20202;-59
2021/12/25 04:05:45;;;;;;;7.57;6.73;;;0.90;99.90;;;;;;5098679;28;20622;-59
2021/12/25 04:08:15;;;;;;;7.13;6.43;;;0.90;99.90;;;;;;5084741;28;21774;-60
2021/12/25 04:10:44;;;;;;;13.07;6.83;;;0.80;99.90;;;;;;5081357;28;20277;-59
2021/12/25 04:13:16;;;;;;;7.17;6.37;;;0.80;99.90;;;;;;5076626;28;20219;-59
2021/12/25 04:15:43;;;;;;;10.23;6.77;;;0.80;99.90;;;;;;5073718;28;20209;-60
2021/12/25 04:18:13;;;;;;;9.80;7.67;;;0.80;99.90;;;;;;5085034;28;20217;-59
2021/12/25 04:20:41;;;;;;;8.27;6.13;;;0.80;99.90;;;;;;5096475;28;20794;-59
2021/12/25 04:23:16;;;;;;;9.23;6.30;;;0.80;98.80;;;;;;5084671;28;20259;-59
2021/12/25 04:25:43;;;;;;;8.93;6.43;;;0.80;99.90;;;;;;5085180;28;20193;-59
2021/12/25 04:28:21;;;;;;;9.93;6.80;;;0.70;1.00;;;;;;5100536;28;20252;-59
2021/12/25 05:06:23;;;;;;;8.67;6.27;;;0.50;1.00;;;;;;5083058;28;20669;-59
2021/12/25 05:08:54;;;;;;;8.23;7.30;;;0.50;1.00;;;;;;5082978;28;20214;-59
2021/12/25 05:11:22;;;;;;;9.60;7.47;;;0.50;1.00;;;;;;5098854;28;20201;-59
2021/12/25 05:13:52;;;;;;;9.50;6.13;;;0.50;1.00;;;;;;5083390;28;20206;-59
2021/12/25 05:16:27;;;;;;;10.33;7.83;;;0.50;1.00;;;;;;5077073;28;20201;-58
2021/12/25 05:18:55;;;;;;;11.47;8.00;;;0.50;1.00;;;;;;5085384;28;20594;-59
2021/12/25 05:21:23;;;;;;;9.40;7.57;;;0.50;1.00;;;;;;5086300;28;20212;-59
2021/12/25 05:23:51;;;;;;;9.33;7.67;;;0.50;1.00;;;;;;5071633;28;20217;-58
2021/12/25 05:26:20;;;;;;;8.67;6.77;;;0.50;1.00;;;;;;5069119;28;20289;-59
2021/12/25 05:28:57;;;;;;;8.03;7.10;;;0.40;1.00;;;;;;5060259;28;20681;-59
2021/12/25 05:31:32;;;;;;;10.13;7.23;;;0.40;1.00;;;;;;5082997;28;20249;-59
2021/12/25 05:34:08;;;;;;;12.67;8.47;;;0.40;1.00;;;;;;5082326;28;20296;-59
2021/12/25 05:37:08;;;;;;;9.87;7.67;;;0.40;1.00;;;;;;5080444;28;20211;-59
2021/12/25 05:39:50;;;;;;;8.67;7.10;;;0.40;1.00;;;;;;5083218;28;20190;-59
2021/12/25 05:42:23;;;;;;;8.30;6.90;;;0.40;1.00;;;;;;5099611;28;20210;-60
2021/12/25 05:44:51;;;;;;;9.60;8.60;;;0.40;1.00;;;;;;5077211;28;20210;-60
2021/12/25 05:47:24;;;;;;;9.27;8.37;;;0.40;1.00;;;;;;5081113;28;20187;-60
2021/12/25 05:50:04;;;;;;;11.67;8.40;;;0.40;1.00;;;;;;5083909;28;20215;-60
2021/12/25 05:53:05;;;;;;;9.63;8.30;;;0.30;1.00;;;;;;5069369;28;20274;-59
2021/12/25 05:55:50;;;;;;;10.43;8.13;;;0.40;1.00;;;;;;5084205;28;20558;-59
2021/12/25 05:58:37;;;;;;;9.17;8.17;;;0.30;1.00;;;;;;5083258;28;20213;-60
2021/12/25 06:01:39;;;;;;;9.33;8.27;;;0.30;1.00;;;;;;5037364;28;20199;-59
2021/12/25 06:04:07;;;;;;;11.07;8.70;;;0.30;1.00;;;;;;5083006;28;20193;-59
2021/12/25 06:06:35;;;;;;;13.23;8.70;;;0.30;1.00;;;;;;5099800;28;20189;-59
2021/12/25 06:09:07;;;;;;;10.10;8.10;;;0.30;1.00;;;;;;5099846;28;20202;-59
2021/12/25 06:11:36;;;;;;;10.23;8.30;;;0.30;1.00;;;;;;5083250;28;20187;-59
2021/12/25 06:14:09;;;;;;;10.63;8.77;;;0.20;1.00;;;;;;5099266;28;20229;-59
2021/12/25 06:16:53;;;;;;;12.70;9.13;;;0.20;1.00;;;;;;5081815;28;20186;-58
2021/12/25 06:19:31;;;;;;;10.93;8.80;;;0.20;1.00;;;;;;5097015;28;20206;-59
2021/12/25 06:22:17;;;;;;;11.77;8.70;;;0.20;1.00;;;;;;5085636;28;20209;-59
2021/12/25 06:25:06;;;;;;;13.30;7.90;;;0.20;1.00;;;;;;5083400;28;20206;-60
2021/12/25 06:28:06;;;;;;;9.33;7.73;;;0.20;1.00;;;;;;5059851;28;20233;-60
2021/12/25 06:30:53;;;;;;;10.37;8.10;;;0.10;1.00;;;;;;5094160;28;20237;-60
2021/12/25 06:33:40;;;;;;;10.23;7.50;;;0.20;1.00;;;;;;5058768;28;20237;-59
2021/12/25 06:36:26;;;;;;;9.53;7.10;;;0.10;99.90;;;;;;5084288;28;20569;-59
2021/12/25 06:39:13;;;;;;;10.33;8.83;;;0.10;99.90;;;;;;5099791;28;20202;-59
2021/12/25 06:41:49;;;;;;;8.03;6.23;;;0.10;1.00;;;;;;5080991;28;20186;-59
2021/12/25 06:44:20;;;;;;;9.90;6.13;;;0.10;99.90;;;;;;5084323;28;20194;-59
2021/12/25 06:46:48;;;;;;;7.90;6.73;;;0.10;99.90;;;;;;5084960;28;20580;-59
2021/12/25 06:49:16;;;;;;;7.63;6.20;;;0.10;99.90;;;;;;5081393;28;20190;-59
2021/12/25 06:52:02;;;;;;;6.80;6.10;;;0.00;99.90;;;;;;5083060;28;20325;-59
2021/12/25 06:54:41;;;;;;;7.80;5.77;;;0.00;1.00;;;;;;5087254;28;20213;-60
2021/12/25 06:57:18;;;;;;;7.73;5.80;;;0.00;99.90;;;;;;5084831;28;20228;-60
2021/12/25 06:59:45;;;;;;;6.33;5.17;;;0.00;99.90;;;;;;5078606;28;20205;-59
2021/12/25 07:02:12;;;;;;;6.73;5.67;;;0.00;99.90;;;;;;5088922;28;20182;-60
2021/12/25 07:04:58;;;;;;;6.93;5.10;;;-0.10;99.90;;;;;;5086863;28;20221;-59
2021/12/25 07:07:46;;;;;;;6.37;4.57;;;0.00;99.90;;;;;;5081500;28;20202;-60
2021/12/25 07:10:32;;;;;;;7.70;4.60;;;-0.10;99.90;;;;;;5086466;28;20324;-59
2021/12/25 07:13:20;;;;;;;4.97;4.23;;;-0.10;99.90;;;;;;5085817;28;20293;-59
2021/12/25 07:15:58;;;;;;;4.37;3.97;;;-0.10;99.90;;;;;;5082059;28;20217;-59
2021/12/25 07:18:45;;;;;;;6.10;4.20;;;-0.10;99.90;;;;;;5084948;28;20205;-59
2021/12/25 07:21:31;;;;;;;6.53;4.13;;;-0.10;99.90;;;;;;5088365;28;20233;-59
2021/12/25 07:24:27;;;;;;;7.80;5.10;;;-0.10;99.90;;;;;;5068273;28;20202;-59
2021/12/25 07:27:13;;;;;;;6.23;5.07;;;-0.10;99.90;;;;;;5086161;28;20669;-59
2021/12/25 07:29:48;;;;;;;8.33;4.60;;;-0.10;99.90;;;;;;5087653;28;20296;-59
2021/12/25 07:32:16;;;;;;;4.83;3.93;;;-0.10;99.90;;;;;;5086828;28;20194;-59
2021/12/25 07:34:46;;;;;;;4.57;3.70;;;-0.10;94.70;;;;;;5085984;28;20261;-59
2021/12/25 07:37:14;;;;;;;5.90;3.80;;;-0.20;73.80;;;;;;5084710;28;20190;-58
2021/12/25 07:39:42;;;;;;;7.70;4.70;;;-0.20;48.40;;;;;;5086680;28;20202;-58
2021/12/25 07:42:09;;;;;;;3.43;3.07;;;-0.20;99.90;;;;;;5087155;28;20190;-59
2021/12/25 07:45:02;;;;;;;5.97;3.80;;;-0.20;1.00;;;;;;5089044;28;20724;-59
2021/12/25 07:47:32;;;;;;;7.00;4.07;;;-0.20;50.80;;;;;;5087705;28;20194;-58
2021/12/25 07:49:59;;;;;;;4.03;2.30;;;-0.30;41.90;;;;;;5088909;28;20654;-59
2021/12/25 07:52:27;;;;;;;4.60;2.43;;;-0.30;1.00;;;;;;5085270;28;20251;-59
2021/12/25 07:54:54;;;;;;;7.30;2.90;;;-0.40;1.00;;;;;;5087710;28;20230;-59
2021/12/25 07:57:22;;;;;;;3.87;2.60;;;-0.30;1.00;;;;;;5085373;28;20252;-59
2021/12/25 07:59:49;;;;;;;2.57;2.13;;;-0.30;1.00;;;;;;5085916;28;20700;-59
2021/12/25 08:02:16;;;;;;;6.67;3.63;;;-0.40;1.00;;;;;;5086230;28;20218;-59
2021/12/25 08:04:43;;;;;;;3.67;2.57;;;-0.40;1.00;;;;;;5084813;28;20199;-59
2021/12/25 08:07:10;;;;;;;5.47;3.40;;;-0.30;1.00;;;;;;5086370;28;20195;-60
2021/12/25 08:09:38;;;;;;;4.70;2.70;;;-0.40;1.00;;;;;;5087005;28;20190;-60
2021/12/25 08:12:05;;;;;;;4.83;3.30;;;-0.40;1.00;;;;;;5086352;28;20190;-59
2021/12/25 08:14:33;;;;;;;4.10;2.80;;;-0.30;1.00;;;;;;5084495;28;20934;-59
2021/12/25 08:17:03;;;;;;;3.50;1.80;;;-0.40;1.00;;;;;;5081041;28;20277;-59
2021/12/25 08:19:56;;;;;;;3.40;1.97;;;-0.40;1.00;;;;;;5069957;28;20666;-59
2021/12/25 08:22:55;;;;;;;4.60;2.30;;;-0.40;1.00;;;;;;5063182;28;20716;-59
2021/12/25 08:25:41;;;;;;;2.67;2.13;;;-0.40;1.00;;;;;;5087240;28;20214;-59
2021/12/25 08:28:26;;;;;;;5.90;3.63;;;-0.40;1.00;;;;;;5088450;28;20204;-58
2021/12/25 08:31:12;;;;;;;3.63;2.80;;;-0.40;1.00;;;;;;5085785;28;20363;-58
2021/12/25 08:34:09;;;;;;;4.27;2.27;;;-0.40;1.00;;;;;;5085411;28;20248;-59
2021/12/25 08:36:55;;;;;;;1.93;1.60;;;-0.40;1.00;;;;;;5087873;28;20192;-58
2021/12/25 08:39:22;;;;;;;3.67;2.70;;;-0.40;1.00;;;;;;5088387;28;20248;-59
2021/12/25 08:41:49;;;;;;;1.90;1.70;;;-0.40;1.00;;;;;;5079643;28;20673;-59
2021/12/25 08:47:21;;;;;;;4.20;2.50;;;-0.40;1.00;;;;;;5040114;28;20255;-60
2021/12/25 08:49:48;;;;;;;2.50;1.80;;;-0.40;1.00;;;;;;5085920;28;20229;-59
2021/12/25 08:52:17;;;;;;;1.77;1.53;;;-0.40;1.00;;;;;;5083125;28;20194;-59
2021/12/25 08:54:48;;;;;;;2.87;1.40;;;-0.50;1.00;;;;;;5084308;28;20211;-59
2021/12/25 08:57:16;;;;;;;1.43;1.30;;;-0.60;1.00;;;;;;5088337;28;20239;-59
2021/12/25 08:59:44;;;;;;;2.07;1.40;;;-0.70;1.00;;;;;;5083467;28;20246;-60
2021/12/25 09:02:15;;;;;;;2.93;1.43;;;-0.60;1.00;;;;;;5087879;28;20225;-59
2021/12/25 09:04:45;;;;;;;2.60;1.67;;;-0.60;1.00;;;;;;5098418;28;20198;-59
2021/12/25 09:07:12;;;;;;;1.67;1.43;;;-0.70;1.00;;;;;;5085098;28;20608;-59
2021/12/25 09:09:40;;;;;;;6.83;1.40;;;-0.60;1.00;;;;;;5084486;28;20953;-58
2021/12/25 09:12:14;;;;;;;2.63;1.50;;;-0.70;1.00;;;;;;5085385;28;21473;-59
2021/12/25 09:14:42;;;;;;;5.60;3.17;;;-0.70;1.00;;;;;;5087448;28;20219;-58
2021/12/25 09:17:09;;;;;;;2.00;1.57;;;-0.60;1.00;;;;;;5086085;28;20200;-59
2021/12/25 09:19:36;;;;;;;2.27;1.60;;;-0.50;1.00;;;;;;5082116;28;20301;-59
2021/12/25 09:22:03;;;;;;;2.13;1.60;;;-0.50;99.90;;;;;;5082634;28;20273;-59
2021/12/25 09:24:30;;;;;;;5.23;2.30;;;-0.50;99.90;;;;;;5085157;28;20198;-58
2021/12/25 09:26:58;;;;;;;83.17;27.30;;;-0.40;1.00;;;;;;5084860;28;20227;-59
2021/12/25 09:29:25;;;;;;;2.93;1.83;;;-0.40;1.00;;;;;;5078358;28;20255;-59
2021/12/25 09:31:53;;;;;;;2.73;1.90;;;-0.40;1.00;;;;;;5069603;28;20371;-59
2021/12/25 09:34:20;;;;;;;2.60;1.60;;;-0.50;1.00;;;;;;5076598;28;20237;-60
2021/12/25 09:36:47;;;;;;;2.13;1.70;;;-0.50;99.90;;;;;;5080132;28;20207;-58
2021/12/25 09:39:14;;;;;;;2.07;1.60;;;-0.60;1.00;;;;;;5082782;28;20205;-58
2021/12/25 09:41:41;;;;;;;4.50;2.23;;;-0.60;99.90;;;;;;5083725;28;20197;-59
2021/12/25 09:44:08;;;;;;;3.47;1.57;;;-0.40;99.90;;;;;;5082852;28;20277;-59
2021/12/25 09:46:35;;;;;;;3.83;2.30;;;-0.40;99.90;;;;;;5086867;28;20268;-58
2021/12/25 09:49:03;;;;;;;3.13;1.87;;;-0.40;99.90;;;;;;5082991;28;20232;-59
2021/12/25 09:51:31;;;;;;;3.57;2.20;;;-0.50;99.90;;;;;;5085508;28;20259;-58
2021/12/25 09:54:08;;;;;;;2.30;1.80;;;-0.50;99.90;;;;;;5067168;28;20440;-59
2021/12/25 09:56:38;;;;;;;8.03;3.47;;;-0.40;99.90;;;;;;5082181;28;20193;-60
2021/12/25 09:59:07;;;;;;;3.93;2.43;;;-0.10;99.90;;;;;;5085082;28;20251;-59
2021/12/25 10:01:47;;;;;;;6.07;2.73;;;0.20;99.90;;;;;;5096872;28;20564;-60
2021/12/25 10:04:52;;;;;;;5.90;2.90;;;0.40;99.90;;;;;;5080352;28;20590;-60
2021/12/25 10:07:21;;;;;;;6.53;3.20;;;1.50;1.00;;;;;;5080560;28;20214;-59
2021/12/25 10:09:57;;;;;;;4.30;1.87;;;4.60;99.90;;;;;;5082943;28;20214;-59
2021/12/25 10:12:32;;;;;;;11.83;3.80;;;5.90;99.90;;;;;;5084303;28;20228;-59
2021/12/25 10:14:59;;;;;;;5.17;2.47;;;5.60;99.90;;;;;;5081063;28;20228;-60
2021/12/25 10:17:29;;;;;;;8.97;3.00;;;3.20;99.90;;;;;;5073150;28;20198;-60
2021/12/25 10:20:00;;;;;;;4.93;2.37;;;1.90;1.00;;;;;;5087902;28;20213;-59
2021/12/25 10:22:27;;;;;;;1.87;1.40;;;0.90;1.00;;;;;;5084249;28;20267;-59
2021/12/25 10:25:11;;;;;;;1.90;1.40;;;0.60;1.00;;;;;;5085845;28;20206;-59
2021/12/25 10:27:49;;;;;;;1.30;1.20;;;2.30;99.90;;;;;;5082363;28;20226;-59
2021/12/25 10:30:16;;;;;;;2.40;1.40;;;4.40;99.90;;;;;;5084890;28;20644;-59
2021/12/25 10:32:43;;;;;;;1.60;1.30;;;6.50;99.90;;;;;;5082714;28;20237;-59
2021/12/25 10:35:17;;;;;;;1.43;1.30;;;6.90;99.90;;;;;;5074526;28;20666;-59
2021/12/25 10:37:48;;;;;;;2.17;1.40;;;5.60;99.90;;;;;;5072856;28;20194;-59
2021/12/25 10:40:32;;;;;;;2.07;1.43;;;5.80;99.90;;;;;;5085005;28;20281;-61
2021/12/25 10:43:02;;;;;;;3.07;1.43;;;6.60;99.90;;;;;;5087457;28;20191;-60
2021/12/25 10:45:31;;;;;;;3.13;1.40;;;7.10;99.90;;;;;;5084498;28;20259;-60
2021/12/25 10:48:10;;;;;;;2.37;1.60;;;6.60;99.90;;;;;;5085890;28;20282;-60
2021/12/25 10:50:43;;;;;;;2.40;1.50;;;7.80;99.90;;;;;;5082244;28;20898;-60
2021/12/25 10:53:34;;;;;;;2.20;1.53;;;8.00;99.90;;;;;;5084104;28;20194;-59
2021/12/25 10:56:12;;;;;;;1.80;1.17;;;7.30;99.90;;;;;;5081266;28;20282;-60
2021/12/25 10:58:40;;;;;;;2.00;1.30;;;6.50;99.90;;;;;;5086192;28;20193;-60
2021/12/25 11:01:10;;;;;;;2.67;1.53;;;7.20;99.90;;;;;;5086828;28;20681;-59
2021/12/25 11:03:42;;;;;;;1.90;1.50;;;7.70;99.90;;;;;;5086727;28;20240;-59
2021/12/25 11:06:13;;;;;;;1.30;1.20;;;7.70;99.90;;;;;;5087642;28;20220;-59
2021/12/25 11:08:41;;;;;;;2.50;1.50;;;7.60;99.90;;;;;;5081084;28;20194;-59
2021/12/25 11:11:14;;;;;;;2.97;1.50;;;7.70;99.90;;;;;;5086695;28;20187;-60
2021/12/25 11:13:48;;;;;;;4.10;1.70;;;7.10;99.90;;;;;;5082622;28;20270;-60
2021/12/25 11:16:18;;;;;;;2.50;1.30;;;7.30;99.90;;;;;;5084906;28;20261;-59
2021/12/25 11:19:14;;;;;;;2.87;1.40;;;7.60;99.90;;;;;;5085840;28;20255;-59
2021/12/25 11:21:48;;;;;;;2.57;1.67;;;7.40;99.90;;;;;;5082269;28;20218;-59
2021/12/25 11:24:20;;;;;;;1.70;1.47;;;7.20;99.90;;;;;;5085089;28;20185;-60
2021/12/25 11:26:51;;;;;;;2.10;1.00;;;5.80;99.90;;;;;;5082722;28;20771;-60
2021/12/25 11:29:22;;;;;;;3.23;1.50;;;6.00;99.90;;;;;;5082470;28;20239;-59
2021/12/25 11:31:51;;;;;;;2.27;1.10;;;6.70;99.90;;;;;;5086160;28;20295;-59
2021/12/25 11:34:19;;;;;;;2.80;1.50;;;5.70;99.90;;;;;;5085134;28;20653;-59
2021/12/25 11:36:50;;;;;;;2.60;1.50;;;6.00;99.90;;;;;;5084757;28;20206;-60
2021/12/25 11:39:20;;;;;;;1.50;1.20;;;5.90;99.90;;;;;;5079121;28;20567;-59
2021/12/25 11:41:48;;;;;;;1.20;1.10;;;6.20;99.90;;;;;;5080796;28;20545;-59
2021/12/25 11:44:43;;;;;;;1.40;1.10;;;6.30;99.90;;;;;;5085857;28;20661;-60
2021/12/25 11:47:43;;;;;;;2.33;1.00;;;5.80;99.90;;;;;;5085673;28;20194;-59
2021/12/25 11:50:22;;;;;;;1.13;1.03;;;6.10;99.90;;;;;;5085202;28;20198;-59
2021/12/25 11:53:13;;;;;;;1.30;1.07;;;5.60;99.90;;;;;;5084819;28;20235;-60
2021/12/25 11:58:37;;;;;;;1.33;1.20;;;5.50;99.90;;;;;;5087533;28;20191;-58
2021/12/25 12:01:23;;;;;;;2.70;1.40;;;5.10;99.90;;;;;;5086739;28;20217;-59
2021/12/25 12:03:58;;;;;;;3.13;1.10;;;4.90;99.90;;;;;;5083985;28;20557;-60
2021/12/25 12:06:46;;;;;;;2.63;1.10;;;4.60;99.90;;;;;;5086453;28;20323;-60
2021/12/25 12:09:22;;;;;;;1.10;1.00;;;4.80;99.90;;;;;;5083394;28;20220;-59
2021/12/25 12:12:13;;;;;;;4.90;4.43;;;5.00;99.90;;;;;;5086123;28;20189;-59
2021/12/25 12:15:08;;;;;;;1.90;1.23;;;5.20;99.90;;;;;;5080913;28;20225;-59
2021/12/25 12:17:55;;;;;;;2.37;1.60;;;4.20;99.90;;;;;;5081924;28;20777;-59
2021/12/25 12:20:41;;;;;;;1.80;1.47;;;4.50;99.90;;;;;;5082782;28;20306;-59
2021/12/25 12:23:36;;;;;;;1.50;1.20;;;4.60;99.90;;;;;;5085481;28;20240;-58
2021/12/25 12:26:08;;;;;;;0.87;0.80;;;4.40;99.90;;;;;;5081295;28;20194;-58
2021/12/25 12:28:53;;;;;;;1.10;1.00;;;4.00;99.90;;;;;;5084636;28;20232;-58
2021/12/25 12:31:46;;;;;;;1.30;1.00;;;4.00;99.90;;;;;;5083866;28;20230;-59
2021/12/25 12:34:31;;;;;;;1.40;1.20;;;4.30;99.90;;;;;;5097397;28;20732;-58
2021/12/25 12:37:13;;;;;;;1.13;0.97;;;4.10;99.90;;;;;;5078682;28;20198;-59
2021/12/25 12:39:54;;;;;;;2.00;1.00;;;3.50;99.90;;;;;;5077257;28;20225;-58
2021/12/25 12:42:40;;;;;;;1.50;1.10;;;3.60;99.90;;;;;;5079781;28;20213;-58
2021/12/25 12:45:14;;;;;;;1.20;1.10;;;3.70;99.90;;;;;;5082106;28;20221;-59
2021/12/25 12:48:10;;;;;;;1.07;1.00;;;3.80;99.90;;;;;;5079552;28;20200;-59
2021/12/25 12:50:39;;;;;;;1.73;1.23;;;3.60;99.90;;;;;;5076024;28;21110;-59
2021/12/25 12:53:09;;;;;;;1.40;1.00;;;3.30;99.90;;;;;;5078284;28;20194;-59
2021/12/25 12:55:39;;;;;;;1.30;1.20;;;3.10;99.90;;;;;;5078907;28;20237;-59
2021/12/25 12:58:19;;;;;;;2.53;1.00;;;2.90;99.90;;;;;;5081825;28;20517;-59
2021/12/25 13:00:52;;;;;;;3.50;1.10;;;2.90;99.90;;;;;;5096690;28;20257;-59
2021/12/25 13:03:19;;;;;;;1.23;1.00;;;2.80;99.90;;;;;;5079737;28;20293;-59
2021/12/25 13:05:54;;;;;;;1.27;1.13;;;2.80;99.90;;;;;;5075122;28;20206;-58
2021/12/25 13:08:28;;;;;;;2.53;1.27;;;2.30;99.90;;;;;;5082204;28;20194;-58
2021/12/25 13:11:05;;;;;;;1.90;1.00;;;2.30;99.90;;;;;;5081755;28;20280;-58
2021/12/25 13:13:39;;;;;;;1.63;1.20;;;2.10;99.90;;;;;;5082511;28;20286;-59
2021/12/25 13:16:08;;;;;;;2.00;1.10;;;2.00;99.90;;;;;;5080282;28;20237;-58
2021/12/25 13:18:48;;;;;;;1.90;1.40;;;2.10;99.90;;;;;;5080523;28;20192;-59
2021/12/25 13:21:22;;;;;;;1.93;1.40;;;1.90;99.90;;;;;;5080418;28;20237;-58
2021/12/25 13:23:56;;;;;;;1.57;1.00;;;2.10;99.90;;;;;;5080427;28;20194;-58
2021/12/25 13:26:34;;;;;;;1.20;1.10;;;1.70;99.90;;;;;;5078207;28;21066;-58
2021/12/25 13:29:07;;;;;;;1.23;0.90;;;1.60;99.90;;;;;;5080483;28;20235;-58
2021/12/25 13:31:38;;;;;;;2.07;1.17;;;1.50;99.90;;;;;;5099891;28;20269;-58
2021/12/25 13:34:13;;;;;;;2.03;1.30;;;1.50;99.50;;;;;;5083499;28;20206;-58
2021/12/25 13:36:46;;;;;;;1.00;0.90;;;1.40;99.90;;;;;;5083683;28;20774;-57
2021/12/25 13:39:18;;;;;;;1.33;1.20;;;1.40;99.90;;;;;;5084224;28;20655;-58
2021/12/25 13:41:52;;;;;;;2.93;1.33;;;1.30;99.90;;;;;;5075851;28;20214;-58
2021/12/25 13:44:22;;;;;;;1.47;0.90;;;1.10;99.80;;;;;;5084635;28;21041;-58
2021/12/25 13:46:54;;;;;;;2.00;1.20;;;1.00;98.80;;;;;;5099106;28;20195;-58
2021/12/25 13:49:39;;;;;;;1.37;0.90;;;0.90;99.90;;;;;;5084478;28;21104;-59
2021/12/25 13:52:09;;;;;;;1.17;1.07;;;0.80;98.30;;;;;;5074544;28;20294;-59
2021/12/25 13:54:43;;;;;;;1.43;1.07;;;0.70;97.90;;;;;;5078693;28;20643;-59
2021/12/25 13:57:13;;;;;;;1.37;1.20;;;0.70;98.40;;;;;;5075116;28;20586;-58
2021/12/25 13:59:47;;;;;;;2.30;1.20;;;0.60;98.30;;;;;;5098954;28;20198;-59
2021/12/25 14:02:15;;;;;;;1.20;1.07;;;0.60;98.30;;;;;;5081569;28;20213;-58
2021/12/25 14:04:47;;;;;;;1.10;1.00;;;0.60;97.30;;;;;;5078939;28;20281;-58
2021/12/25 14:07:18;;;;;;;1.47;1.37;;;0.50;98.00;;;;;;5076544;28;20222;-59
2021/12/25 14:09:54;;;;;;;1.07;0.97;;;0.50;97.50;;;;;;5077886;28;20228;-59
2021/12/25 14:12:23;;;;;;;1.47;1.37;;;0.50;97.60;;;;;;5076645;28;20642;-58
2021/12/25 14:14:51;;;;;;;2.43;1.40;;;0.40;97.60;;;;;;5078973;28;20309;-58
2021/12/25 14:17:18;;;;;;;1.40;1.00;;;0.40;98.40;;;;;;5091200;28;20832;-58
2021/12/25 14:19:45;;;;;;;1.73;1.30;;;0.30;97.40;;;;;;5077998;28;20202;-58
2021/12/25 14:22:12;;;;;;;1.30;1.20;;;0.30;97.40;;;;;;5075833;28;20202;-59
2021/12/25 14:24:46;;;;;;;2.30;1.20;;;0.20;97.00;;;;;;5076001;28;20939;-59
2021/12/25 14:27:21;;;;;;;1.17;1.00;;;0.20;97.40;;;;;;5075018;28;20209;-59
2021/12/25 14:29:50;;;;;;;1.60;1.20;;;0.10;97.80;;;;;;5075610;28;20240;-59
2021/12/25 14:32:29;;;;;;;1.80;1.50;;;0.10;97.80;;;;;;5080873;28;20205;-59
2021/12/25 14:34:57;;;;;;;1.93;1.27;;;0.00;98.00;;;;;;5080706;28;20214;-58
2021/12/25 14:37:36;;;;;;;1.30;1.20;;;0.10;96.70;;;;;;5078520;28;20199;-59
2021/12/25 14:40:10;;;;;;;1.30;1.00;;;0.00;96.50;;;;;;5082709;28;20202;-59
2021/12/25 14:42:44;;;;;;;3.80;1.30;;;0.00;99.90;;;;;;5078125;28;20642;-59
2021/12/25 14:45:12;;;;;;;1.10;1.00;;;-0.10;96.50;;;;;;5080853;28;20236;-58
2021/12/25 14:47:58;;;;;;;2.33;1.20;;;-0.10;96.20;;;;;;5096230;28;20214;-58
2021/12/25 14:50:32;;;;;;;1.53;1.17;;;-0.20;95.50;;;;;;5060281;28;20670;-58